x

Wainfleet (03392) Weather Station

12:00 - Tue 9th Feb 2016 All times are GMT.

  • Wind
    11mph
  • Aire Temp 42°f
  • Sea Pressure 982mb
  • Wainfleet
  • Wainfleet

More Historic Weather Station data

Upgrade to MSW Pro to gain access to the past 30 days of data for over 8000 Wavebouys and Weather Stations around the globe.

Join Pro

Comparision Forecast

View Surf forecast
   
mar 02/09 12:00 11
mph
982mb 42f
10:00 15
mph
983mb 38f
9:00 17
mph
984mb 37f
8:00 19 29 mph 985mb 37f
7:00 23 31 mph 985mb 37f
6:00 23 30 mph 986mb 37f
5:00 22 29 mph 986mb 37f
4:00 18 30 mph 987mb 38f
2:00 18 29 mph 988mb 40f
1:00 21 31 mph 988mb 41f
lun 02/08 11:00 23 37 mph 987mb 43f
10:00 26 46 mph 986mb 44f
8:00 28 39 mph 984mb 45f
7:00 26 46 mph 983mb 44f
6:00 26 39 mph 982mb 45f
4:00 25 40 mph 978mb 47f
3:00 30 45 mph 977mb 47f
2:00 29 41 mph 976mb 47f
1:00 29 44 mph 976mb 46f
12:00 33 46 mph 975mb 46f
11:00 32 44 mph 975mb 45f
10:00 31 41 mph 976mb 44f
9:00 29 37 mph 976mb 42f
8:00 28 40 mph 977mb 42f
7:00 28 40 mph 977mb 42f
6:00 28 39 mph 977mb 42f
4:00 24 39 mph 978mb 43f
3:00 24 34 mph 978mb 44f
2:00 25 36 mph 978mb 46f
1:00 24 33 mph 978mb 45f
dom 02/07 11:00 30 48 mph 979mb 46f
10:00 32 48 mph 981mb 44f
9:00 34 47 mph 983mb 44f
8:00 32 44 mph 985mb 43f
7:00 31 41 mph 987mb 45f
6:00 26 40 mph 988mb 44f
4:00 24 39 mph 989mb 45f
3:00 25 37 mph 990mb 47f
2:00 28 38 mph 990mb 46f
1:00 26 38 mph 990mb 46f
12:00 31 40 mph 989mb 46f
11:00 25 36 mph 989mb 44f
10:00 28 34 mph 989mb 42f
9:00 23 31 mph 989mb 40f
7:00 23 33 mph 988mb 41f
6:00 22 30 mph 987mb 41f
5:00 21 29 mph 987mb 41f
4:00 22 29 mph 986mb 42f
3:00 22
mph
986mb 42f
2:00 18
mph
985mb 43f
1:00 11
mph
984mb 43f
sáb 02/06 11:00 29 44 mph 983mb 48f
10:00 36 47 mph 983mb 49f
9:00 31 49 mph 984mb 51f
8:00 33 44 mph 985mb 51f
6:00 30 40 mph 987mb 51f
5:00 28 37 mph 988mb 51f
4:00 26 37 mph 989mb 51f
2:00 28 36 mph 991mb 50f
1:00 28 38 mph 993mb 50f
11:00 26 36 mph 996mb 49f
10:00 22 31 mph 997mb 48f
9:00 23 30 mph 998mb 48f
7:00 19
mph
1000mb 47f
6:00 16
mph
1001mb 47f
5:00 13
mph
1002mb 46f
4:00 11
mph
1003mb 46f
2:00 21
mph
1004mb 48f
1:00 18 33 mph 1004mb 47f
vie 02/05 11:00 28 38 mph 1005mb 48f
9:00 28 39 mph 1006mb 49f
8:00 24 37 mph 1007mb 49f
7:00 26 33 mph 1008mb 49f
6:00 24 31 mph 1009mb 49f
5:00 17 29 mph 1010mb 49f
4:00 22 29 mph 1011mb 49f
3:00 21
mph
1011mb 50f